Disclaimer

Please do not use the information listed here in-flight or in-navigation, as they are not provided to us by the airports but are provided by volunteers, so they might be outdated.

Search


Regions


Airport information page

Radio informations:
Automatic Terminal Information Service (ATIS) - 118.025 MHz

Airport informations:
Latitude: 69° 43' 32.81" N
Longitude: 029° 53' 28.66" E
Elevation: 283 feet - 86 meters
Operating hours: Remarks
Operating agency: Civil government, landing fees and diplomatic clearance may be required
Timezone: UTC+1(+2DT) - Last Sunday in March to last Sunday in October
Fuel: Jet A1, without icing nhibitor.

100/130 MIL Spec, low lead, aviation gasoline (BLUE)

Runway information:
06/24 - 6939 x 148 feet< - >2115 x 45 meters

Recent METARs:
ENKR 201350Z 35021KT 9999 BKN028 01/M04 Q1026 RMK WIND 731FT 34025G36KT
ENKR 201420Z 35017KT 9999 BKN026 01/M04 Q1026 RMK WIND 731FT 34026G37KT
ENKR 201420Z 35017KT 9999 BKN026 01/M04 Q1026 RMK WIND 731FT 34026G37KT

Airport on the map: